Pacific Hope — 3FLH6 — position and weather

sailwx.info

Track history (hours):
 
Tides and Currents Weather Stations Pressure Air Temp Water Temp Dewpoint Dewpoint Depression Visibility Wind Speed Wind Dir Waves Ship Positions

Pacific Hope

Last reported at 2014-Nov-20 02:16 UTC. Time now 2014-Nov-23 01:13 UTC.
Position N 01°16' E 104°12'.

Length 169 m; draft 10.1 m.

Type: Ship. MMSI: 351849000.

Date/timePositionNaut miles runAvg speedWind from/ knotsBaromVisibWave heightAir tempDewpointWater temp
2014-Nov-20 02:16N 01°16' E 104°12'911.8
2014-Nov-20 01:32N 01°15' E 104°03'10 9.8
2014-Nov-20 00:33N 01°14' E 103°54'2 1.7
2014-Nov-19 23:33N 01°15' E 103°53'0 0.0
2014-Nov-19 22:34N 01°15' E 103°53'0 0.0
2014-Nov-19 21:33N 01°15' E 103°53'0 0.0
2014-Nov-19 20:33N 01°15' E 103°53'0 0.0
2014-Nov-19 19:33N 01°15' E 103°53'0 0.0
2014-Nov-19 18:21N 01°15' E 103°53'0 0.1
2014-Nov-19 17:33N 01°15' E 103°53'0 0.0
2014-Nov-19 16:27N 01°15' E 103°53'0 0.1
2014-Nov-19 15:33N 01°15' E 103°53'0 0.0
2014-Nov-19 14:33N 01°15' E 103°53'0 0.0
2014-Nov-19 13:33N 01°15' E 103°53'0 0.0
2014-Nov-19 12:22N 01°15' E 103°53'1 0.9
2014-Nov-19 11:33N 01°14' E 103°53'7 6.3
2014-Nov-19 10:31N 01°10' E 103°49'  
Track history (hours):
 
Tides and Currents Weather Stations Pressure Air Temp Water Temp Dewpoint Dewpoint Depression Visibility Wind Speed Wind Dir Waves Ship Positions

Pacific Hope

Last reported at 2014-Nov-20 02:16 UTC. Time now 2014-Nov-23 01:13 UTC.
Position N 01°16' E 104°12'.

Length 169 m; draft 10.1 m.

Type: Ship. MMSI: 351849000.

Date/timePositionNaut miles runAvg speedWind from/ knotsBaromVisibWave heightAir tempDewpointWater temp
2014-Nov-20 02:16N 01°16' E 104°12'911.8
2014-Nov-20 01:32N 01°15' E 104°03'10 9.8
2014-Nov-20 00:33N 01°14' E 103°54'2 1.7
2014-Nov-19 23:33N 01°15' E 103°53'0 0.0
2014-Nov-19 22:34N 01°15' E 103°53'0 0.0
2014-Nov-19 21:33N 01°15' E 103°53'0 0.0
2014-Nov-19 20:33N 01°15' E 103°53'0 0.0
2014-Nov-19 19:33N 01°15' E 103°53'0 0.0
2014-Nov-19 18:21N 01°15' E 103°53'0 0.1
2014-Nov-19 17:33N 01°15' E 103°53'0 0.0
2014-Nov-19 16:27N 01°15' E 103°53'0 0.1
2014-Nov-19 15:33N 01°15' E 103°53'0 0.0
2014-Nov-19 14:33N 01°15' E 103°53'0 0.0
2014-Nov-19 13:33N 01°15' E 103°53'0 0.0
2014-Nov-19 12:22N 01°15' E 103°53'1 0.9
2014-Nov-19 11:33N 01°14' E 103°53'7 6.3
2014-Nov-19 10:31N 01°10' E 103°49'  

Dump ship's entire track history